Time;durP1;ratioP1;P1;durP2;ratioP2;P2;SDS_P1;SDS_P2;PMS_P1;PMS_P2;Temp;Humidity;BMP_temperature;BMP_pressure;BME280_temperature;BME280_humidity;BME280_pressure;Samples;Min_cycle;Max_cycle;Signal;HPM_P1;HPM_P2
2023/06/27 00:13:42;;;;;;;8.55;5.60;;;25.80;54.30;;;;;;7680174;22;81021;-67
2023/06/27 00:16:43;;;;;;;8.88;6.00;;;25.80;54.30;;;;;;7678611;22;80404;-66
2023/06/27 00:19:46;;;;;;;8.02;5.85;;;25.80;54.10;;;;;;7679488;22;81243;-66
2023/06/27 00:22:47;;;;;;;8.18;6.10;;;25.80;54.30;;;;;;7678424;22;80968;-65
2023/06/27 00:25:47;;;;;;;11.15;6.63;;;25.70;54.40;;;;;;7679851;22;80757;-65
2023/06/27 00:28:48;;;;;;;9.30;6.18;;;25.70;54.40;;;;;;7679351;22;80212;-65
2023/06/27 00:31:48;;;;;;;8.88;5.97;;;25.70;54.40;;;;;;7652061;22;83223;-65
2023/06/27 00:34:49;;;;;;;13.55;7.43;;;25.70;54.40;;;;;;7652303;22;84784;-64
2023/06/27 00:37:49;;;;;;;10.27;6.40;;;25.70;54.40;;;;;;7679153;22;80804;-65
2023/06/27 00:40:50;;;;;;;9.50;6.60;;;25.70;55.00;;;;;;7678910;22;80106;-65
2023/06/27 00:43:51;;;;;;;8.95;6.10;;;25.70;54.70;;;;;;7651203;22;83150;-66
2023/06/27 00:46:52;;;;;;;12.07;6.57;;;25.70;55.00;;;;;;7678762;22;80770;-65
2023/06/27 00:49:53;;;;;;;12.55;7.00;;;25.70;55.10;;;;;;7678843;22;80748;-66
2023/06/27 00:52:53;;;;;;;10.40;5.95;;;25.70;55.20;;;;;;7654300;22;83459;-65
2023/06/27 00:55:54;;;;;;;9.18;6.22;;;25.70;55.60;;;;;;7679369;22;80473;-66
2023/06/27 00:58:54;;;;;;;8.55;6.00;;;25.70;55.60;;;;;;7651891;22;82955;-65
2023/06/27 01:01:55;;;;;;;9.48;6.05;;;25.70;56.10;;;;;;7651817;22;83038;-66
2023/06/27 01:04:55;;;;;;;9.57;6.05;;;25.70;56.30;;;;;;7651780;22;83196;-67
2023/06/27 01:07:57;;;;;;;10.75;6.03;;;25.70;56.80;;;;;;7652519;22;83084;-58
2023/06/27 01:11:01;;;;;;;8.85;6.07;;;25.70;57.20;;;;;;7650880;22;81952;-57
2023/06/27 01:14:02;;;;;;;8.68;5.38;;;25.70;57.60;;;;;;7679582;22;80378;-58
2023/06/27 01:17:03;;;;;;;10.32;6.05;;;25.70;58.00;;;;;;7678652;22;80513;-57
2023/06/27 01:20:05;;;;;;;8.55;6.50;;;25.80;58.40;;;;;;7677826;22;80415;-57
2023/06/27 01:23:05;;;;;;;8.57;5.85;;;25.70;58.50;;;;;;7678612;22;80209;-58
2023/06/27 01:26:07;;;;;;;9.82;6.03;;;25.70;58.80;;;;;;7677694;22;80242;-66
2023/06/27 01:29:08;;;;;;;9.20;5.82;;;25.70;59.20;;;;;;7679037;22;80167;-66
2023/06/27 01:32:08;;;;;;;10.27;5.85;;;25.70;59.50;;;;;;7677551;22;80260;-65
2023/06/27 01:35:09;;;;;;;9.73;5.90;;;25.70;59.80;;;;;;7680007;22;81352;-66
2023/06/27 01:38:10;;;;;;;8.43;5.95;;;25.70;59.90;;;;;;7680569;22;80131;-65
2023/06/27 01:41:10;;;;;;;8.02;6.00;;;25.70;60.10;;;;;;7680646;22;80573;-65
2023/06/27 01:44:13;;;;;;;8.00;5.72;;;25.70;60.30;;;;;;7680149;22;81428;-55
2023/06/27 01:47:14;;;;;;;7.05;5.75;;;25.70;60.50;;;;;;7680916;22;80760;-55
2023/06/27 01:50:15;;;;;;;7.97;5.70;;;25.70;60.70;;;;;;7680916;22;80322;-55
2023/06/27 01:53:15;;;;;;;10.18;6.47;;;25.70;60.90;;;;;;7680989;22;80746;-54
2023/06/27 01:56:16;;;;;;;12.00;6.95;;;25.70;61.00;;;;;;7681099;22;80872;-55
2023/06/27 01:59:16;;;;;;;9.25;5.95;;;25.70;61.20;;;;;;7680617;22;81113;-53
2023/06/27 02:02:17;;;;;;;8.82;5.97;;;25.70;61.50;;;;;;7680842;22;80609;-54
2023/06/27 02:05:17;;;;;;;12.27;6.30;;;25.70;61.60;;;;;;7680225;22;80607;-68
2023/06/27 02:08:18;;;;;;;9.77;6.32;;;25.70;61.90;;;;;;7653688;22;82832;-68
2023/06/27 02:11:19;;;;;;;9.65;5.75;;;25.70;62.00;;;;;;7653971;22;80904;-69
2023/06/27 02:14:19;;;;;;;8.85;6.20;;;25.70;61.80;;;;;;7652963;22;82077;-64
2023/06/27 02:17:20;;;;;;;7.60;6.45;;;25.70;61.90;;;;;;7648575;22;82965;-68
2023/06/27 02:20:20;;;;;;;7.90;6.35;;;25.70;61.90;;;;;;7677488;22;80039;-65
2023/06/27 02:23:21;;;;;;;11.90;6.15;;;25.70;62.00;;;;;;7650107;22;81436;-66
2023/06/27 02:26:21;;;;;;;9.25;5.72;;;25.70;62.10;;;;;;7675463;22;81028;-64
2023/06/27 02:29:22;;;;;;;14.73;6.40;;;25.70;62.20;;;;;;7678774;22;81223;-64
2023/06/27 02:32:22;;;;;;;10.13;5.55;;;25.70;62.30;;;;;;7678765;22;80726;-65
2023/06/27 02:35:23;;;;;;;9.35;5.90;;;25.70;62.40;;;;;;7678884;22;80372;-65
2023/06/27 02:38:24;;;;;;;9.63;5.68;;;25.70;62.50;;;;;;7675137;22;80592;-65
2023/06/27 02:41:24;;;;;;;8.52;5.88;;;25.70;62.70;;;;;;7678131;22;81118;-65
2023/06/27 02:44:25;;;;;;;9.35;5.82;;;25.70;62.70;;;;;;7650067;22;80818;-64
2023/06/27 02:47:26;;;;;;;7.57;6.10;;;25.70;62.90;;;;;;7649481;22;82807;-67
2023/06/27 02:50:26;;;;;;;8.88;6.20;;;25.60;63.00;;;;;;7650890;22;82441;-67
2023/06/27 02:53:27;;;;;;;8.00;5.88;;;25.60;63.00;;;;;;7676887;22;81817;-66
2023/06/27 02:56:29;;;;;;;8.13;5.90;;;25.60;63.10;;;;;;7650715;22;83074;-66
2023/06/27 02:59:29;;;;;;;9.45;5.70;;;25.60;63.10;;;;;;7653792;22;82210;-66
2023/06/27 03:02:31;;;;;;;8.63;5.90;;;25.60;63.20;;;;;;7652364;22;81510;-66
2023/06/27 03:05:31;;;;;;;9.00;5.68;;;25.60;63.20;;;;;;7652999;22;82860;-68
2023/06/27 03:08:33;;;;;;;10.52;6.28;;;25.60;63.20;;;;;;7653715;22;82687;-67
2023/06/27 03:14:40;;;;;;;8.88;5.80;;;25.60;63.40;;;;;;7679234;22;80197;-68
2023/06/27 03:17:41;;;;;;;8.05;5.57;;;25.60;63.50;;;;;;7653145;22;81542;-67
2023/06/27 03:20:42;;;;;;;9.02;5.00;;;25.60;63.60;;;;;;7653099;22;83199;-66
2023/06/27 03:23:44;;;;;;;7.75;4.93;;;25.60;63.60;;;;;;7653096;22;83164;-66
2023/06/27 03:26:45;;;;;;;8.90;5.05;;;25.60;63.70;;;;;;7650362;22;80594;-66
2023/06/27 03:29:46;;;;;;;7.95;4.85;;;25.60;63.70;;;;;;7653033;22;83613;-65
2023/06/27 03:32:47;;;;;;;8.63;4.70;;;25.60;63.80;;;;;;7679472;22;81806;-66
2023/06/27 03:35:48;;;;;;;9.63;5.20;;;25.60;63.80;;;;;;7651508;22;82472;-67
2023/06/27 03:38:50;;;;;;;6.85;5.13;;;25.60;63.80;;;;;;7673827;22;83280;-66
2023/06/27 03:41:52;;;;;;;6.65;4.78;;;25.60;63.80;;;;;;7652548;22;83142;-68
2023/06/27 03:44:54;;;;;;;6.82;5.00;;;25.60;63.90;;;;;;7652329;22;82253;-66
2023/06/27 03:47:54;;;;;;;6.20;5.18;;;25.60;63.90;;;;;;7679440;22;80399;-68
2023/06/27 03:50:55;;;;;;;5.60;4.15;;;25.60;63.90;;;;;;7645996;22;82048;-67
2023/06/27 03:53:56;;;;;;;11.90;5.28;;;25.60;63.90;;;;;;7649900;22;81766;-66
2023/06/27 03:56:56;;;;;;;6.28;4.82;;;25.60;63.90;;;;;;7651223;22;83409;-64
2023/06/27 03:59:57;;;;;;;6.38;4.65;;;25.70;64.10;;;;;;7676667;22;80507;-63
2023/06/27 04:02:58;;;;;;;5.60;4.03;;;25.60;63.90;;;;;;7650935;22;82855;-66
2023/06/27 04:05:59;;;;;;;6.65;4.65;;;25.60;64.10;;;;;;7678707;22;80348;-66
2023/06/27 04:08:59;;;;;;;7.10;5.05;;;25.60;64.30;;;;;;7678755;22;80349;-62
2023/06/27 04:12:01;;;;;;;7.65;4.90;;;25.70;64.30;;;;;;7650386;22;83217;-68
2023/06/27 04:15:02;;;;;;;17.60;4.57;;;25.70;63.90;;;;;;7651193;22;83248;-68
2023/06/27 04:18:03;;;;;;;8.40;4.63;;;25.70;64.30;;;;;;7649795;22;82879;-64
2023/06/27 04:21:04;;;;;;;5.68;4.28;;;25.70;64.60;;;;;;7651458;22;82277;-65
2023/06/27 04:24:05;;;;;;;10.20;5.30;;;25.60;65.20;;;;;;7678536;22;80378;-65
2023/06/27 04:27:09;;;;;;;8.27;5.13;;;25.50;66.00;;;;;;7652379;22;83353;-59
2023/06/27 04:30:09;;;;;;;7.82;5.00;;;25.50;66.60;;;;;;7652367;22;80479;-59
2023/06/27 04:33:13;;;;;;;9.10;5.13;;;25.30;68.30;;;;;;7672155;22;81285;-61
2023/06/27 04:36:15;;;;;;;9.10;6.05;;;25.20;69.40;;;;;;7673455;22;80384;-60
2023/06/27 04:39:16;;;;;;;9.20;5.53;;;24.80;72.10;;;;;;7678797;22;80419;-63
2023/06/27 04:42:17;;;;;;;8.23;5.88;;;24.60;73.10;;;;;;7680027;22;80835;-61
2023/06/27 04:45:18;;;;;;;8.25;5.00;;;24.80;72.60;;;;;;7570447;22;83170;-60
2023/06/27 04:48:20;;;;;;;8.57;5.10;;;24.90;71.90;;;;;;7154862;22;84449;-59
2023/06/27 04:51:22;;;;;;;10.43;5.35;;;25.00;71.80;;;;;;6814819;22;84073;-63
2023/06/27 04:54:23;;;;;;;5.82;5.10;;;24.90;71.90;;;;;;6834764;22;83430;-66
2023/06/27 04:57:25;;;;;;;9.93;5.80;;;25.00;71.80;;;;;;6822117;22;83369;-66
2023/06/27 05:00:33;;;;;;;7.53;5.78;;;25.00;71.50;;;;;;7414370;22;82970;-66
2023/06/27 05:03:34;;;;;;;10.40;5.30;;;25.00;71.70;;;;;;7669986;22;81297;-64
2023/06/27 05:06:34;;;;;;;8.40;4.93;;;24.90;72.10;;;;;;7670896;22;81018;-63
2023/06/27 05:09:35;;;;;;;12.48;5.10;;;25.00;71.70;;;;;;7674486;22;80354;-61
2023/06/27 05:12:35;;;;;;;12.23;6.63;;;25.10;71.30;;;;;;7676613;22;80788;-61
2023/06/27 05:15:36;;;;;;;8.93;5.20;;;25.10;71.30;;;;;;7677958;22;80295;-62
2023/06/27 05:18:36;;;;;;;8.20;4.72;;;25.20;71.30;;;;;;7679557;22;80293;-63
2023/06/27 05:21:37;;;;;;;6.95;4.55;;;25.20;71.10;;;;;;7680959;22;80375;-61
2023/06/27 05:24:37;;;;;;;9.70;4.97;;;25.20;70.90;;;;;;7678588;22;80794;-57
2023/06/27 05:27:38;;;;;;;9.45;5.63;;;25.20;70.90;;;;;;7679642;22;80451;-58
2023/06/27 05:30:39;;;;;;;7.88;5.57;;;25.10;71.60;;;;;;7681743;22;80546;-59
2023/06/27 05:33:39;;;;;;;9.00;5.18;;;25.00;72.20;;;;;;7680311;22;80709;-58
2023/06/27 05:36:40;;;;;;;6.47;4.85;;;25.00;73.30;;;;;;7679122;22;80177;-57
2023/06/27 05:39:40;;;;;;;20.75;11.40;;;25.00;72.70;;;;;;7674838;22;81003;-59
2023/06/27 05:42:41;;;;;;;90.65;51.05;;;25.00;72.90;;;;;;7678061;22;84212;-58
2023/06/27 05:45:41;;;;;;;129.02;75.45;;;25.00;73.20;;;;;;7671768;22;83433;-71
2023/06/27 05:48:41;;;;;;;218.48;121.72;;;25.10;73.00;;;;;;7669614;22;83297;-67
2023/06/27 05:51:42;;;;;;;256.60;148.52;;;25.00;73.10;;;;;;7667349;22;86274;-64
2023/06/27 05:54:42;;;;;;;269.35;147.82;;;25.10;72.70;;;;;;7673406;22;85829;-62
2023/06/27 05:57:43;;;;;;;218.45;125.75;;;25.20;72.60;;;;;;7674713;22;85598;-68
2023/06/27 06:00:44;;;;;;;196.15;108.93;;;25.30;72.50;;;;;;7674601;22;86557;-71
2023/06/27 06:03:44;;;;;;;138.25;77.43;;;25.30;72.50;;;;;;7674651;22;85608;-59
2023/06/27 06:06:46;;;;;;;113.18;63.38;;;25.20;72.90;;;;;;7673126;22;84233;-59
2023/06/27 06:09:47;;;;;;;93.93;53.42;;;25.20;73.20;;;;;;7677847;22;83213;-59
2023/06/27 06:12:47;;;;;;;84.70;46.80;;;25.20;73.50;;;;;;7675411;22;83164;-58
2023/06/27 06:15:48;;;;;;;66.18;37.15;;;25.20;73.60;;;;;;7675351;22;83490;-58
2023/06/27 06:18:48;;;;;;;54.90;28.90;;;25.10;73.80;;;;;;7673417;22;83125;-58
2023/06/27 06:21:49;;;;;;;29.05;14.40;;;24.90;75.20;;;;;;7672394;22;83940;-67
2023/06/27 06:24:49;;;;;;;24.52;14.25;;;25.00;74.30;;;;;;7672755;22;82903;-72
2023/06/27 06:27:50;;;;;;;25.08;14.88;;;25.10;74.00;;;;;;7675892;22;83018;-64
2023/06/27 06:30:50;;;;;;;24.75;14.60;;;25.10;73.30;;;;;;7676676;22;82934;-66
2023/06/27 06:33:53;;;;;;;20.23;11.93;;;25.20;72.80;;;;;;7288415;22;86272;-71
2023/06/27 06:36:56;;;;;;;22.15;12.10;;;25.20;72.40;;;;;;6936869;22;85904;-73
2023/06/27 06:39:56;;;;;;;16.83;11.30;;;25.30;71.70;;;;;;7671029;22;84206;-59
2023/06/27 06:42:57;;;;;;;17.20;10.38;;;25.30;71.20;;;;;;7670126;22;84037;-59
2023/06/27 06:45:57;;;;;;;16.92;9.88;;;25.40;71.00;;;;;;7672299;22;83555;-59
2023/06/27 06:48:58;;;;;;;18.63;10.25;;;25.40;70.70;;;;;;7677632;22;82471;-59
2023/06/27 06:51:58;;;;;;;18.92;8.98;;;25.40;70.70;;;;;;7673099;22;82882;-58
2023/06/27 06:54:59;;;;;;;18.52;9.95;;;25.40;70.60;;;;;;7679478;22;81834;-59
2023/06/27 06:57:59;;;;;;;17.42;8.15;;;25.40;70.40;;;;;;7677979;22;80333;-60
2023/06/27 07:01:00;;;;;;;18.38;7.93;;;25.50;70.20;;;;;;7677574;22;80345;-59
2023/06/27 07:04:00;;;;;;;20.17;7.90;;;25.40;69.80;;;;;;7675568;22;80292;-58
2023/06/27 07:07:01;;;;;;;14.55;6.70;;;25.40;69.70;;;;;;7676422;22;80676;-58
2023/06/27 07:10:01;;;;;;;14.38;6.47;;;25.40;69.80;;;;;;7678554;22;80883;-63
2023/06/27 07:13:02;;;;;;;17.63;5.85;;;25.50;70.20;;;;;;7679175;22;80630;-59
2023/06/27 07:16:02;;;;;;;11.32;6.00;;;25.50;69.50;;;;;;7677734;22;80756;-58
2023/06/27 07:19:03;;;;;;;11.02;5.43;;;25.50;69.20;;;;;;7671595;22;80834;-58
2023/06/27 07:22:03;;;;;;;14.18;5.60;;;25.50;69.10;;;;;;7678896;22;80710;-61
2023/06/27 07:25:04;;;;;;;14.15;5.78;;;25.50;69.10;;;;;;7676162;22;80967;-57
2023/06/27 07:28:05;;;;;;;8.43;4.90;;;25.50;69.70;;;;;;7679856;22;80684;-58
2023/06/27 07:31:05;;;;;;;13.57;5.65;;;25.50;68.70;;;;;;7651527;22;80462;-58
2023/06/27 07:34:06;;;;;;;11.52;5.10;;;25.60;68.60;;;;;;7679509;22;80518;-66
2023/06/27 07:37:06;;;;;;;6.05;4.25;;;25.60;68.70;;;;;;7678884;22;80352;-71
2023/06/27 07:40:07;;;;;;;8.23;4.50;;;25.60;68.40;;;;;;7649716;22;80930;-74
2023/06/27 07:43:08;;;;;;;9.60;4.35;;;25.60;68.10;;;;;;7675318;22;80332;-72
2023/06/27 07:46:08;;;;;;;8.45;4.60;;;25.70;68.40;;;;;;7672477;22;80729;-68
2023/06/27 07:49:09;;;;;;;10.95;4.75;;;25.70;67.90;;;;;;7644913;22;80721;-66
2023/06/27 07:52:09;;;;;;;7.72;4.30;;;25.70;67.70;;;;;;7678437;22;81034;-56
2023/06/27 07:55:10;;;;;;;10.77;4.97;;;25.70;66.90;;;;;;7674170;22;80411;-56
2023/06/27 07:58:10;;;;;;;9.75;4.55;;;25.60;65.10;;;;;;7674274;22;80204;-58
2023/06/27 08:01:11;;;;;;;23.95;4.45;;;25.50;65.40;;;;;;7675866;22;81594;-57
2023/06/27 08:04:11;;;;;;;8.35;3.95;;;25.50;66.00;;;;;;7672245;22;80658;-58
2023/06/27 08:07:12;;;;;;;9.48;4.40;;;25.50;65.70;;;;;;7675080;22;80302;-57
2023/06/27 08:10:12;;;;;;;7.75;3.55;;;25.50;65.60;;;;;;7655425;22;80518;-57
2023/06/27 08:13:13;;;;;;;8.60;4.25;;;25.50;65.50;;;;;;7674626;22;80715;-57
2023/06/27 08:16:14;;;;;;;7.05;4.28;;;25.50;65.30;;;;;;7675713;22;80470;-57
2023/06/27 08:19:14;;;;;;;6.18;3.92;;;25.60;65.30;;;;;;7678999;22;80483;-58
2023/06/27 08:22:15;;;;;;;7.70;3.60;;;25.50;65.10;;;;;;7680402;22;80524;-57
2023/06/27 08:25:16;;;;;;;4.75;3.90;;;25.50;65.30;;;;;;7675281;22;80592;-57
2023/06/27 08:28:16;;;;;;;8.23;4.63;;;25.50;65.10;;;;;;7675120;22;80561;-57
2023/06/27 08:31:16;;;;;;;11.02;4.18;;;25.50;64.90;;;;;;7675311;22;80652;-58
2023/06/27 08:34:17;;;;;;;9.32;3.78;;;25.60;64.90;;;;;;7675121;22;81265;-58
2023/06/27 08:37:18;;;;;;;17.48;4.40;;;25.50;64.70;;;;;;7675557;22;80270;-57
2023/06/27 08:40:18;;;;;;;7.25;4.45;;;25.50;64.80;;;;;;7680451;22;80616;-58
2023/06/27 08:43:19;;;;;;;5.80;4.10;;;25.50;64.90;;;;;;7679720;22;80428;-59
2023/06/27 08:46:20;;;;;;;9.05;4.05;;;25.50;64.70;;;;;;7680894;22;81411;-59
2023/06/27 08:49:21;;;;;;;8.90;4.13;;;25.50;64.80;;;;;;7681360;22;80442;-59
2023/06/27 08:52:22;;;;;;;8.43;4.22;;;25.50;64.80;;;;;;7681157;22;80333;-59
2023/06/27 08:55:23;;;;;;;6.68;3.90;;;25.50;64.70;;;;;;7653112;22;83669;-58
2023/06/27 08:58:26;;;;;;;8.10;4.30;;;25.50;64.60;;;;;;7680407;22;81230;-58
2023/06/27 09:01:27;;;;;;;8.15;4.20;;;25.50;64.50;;;;;;7681590;22;80472;-58
2023/06/27 09:04:27;;;;;;;6.35;3.95;;;25.60;64.60;;;;;;7680234;22;80799;-57
2023/06/27 09:07:28;;;;;;;7.25;4.05;;;25.60;64.50;;;;;;7681238;22;80335;-57
2023/06/27 09:10:28;;;;;;;6.38;4.20;;;25.60;64.40;;;;;;7680970;22;80268;-58
2023/06/27 09:13:30;;;;;;;6.50;4.63;;;25.60;64.30;;;;;;7679784;22;80524;-58
2023/06/27 09:16:30;;;;;;;8.25;4.25;;;25.60;64.20;;;;;;7661330;22;80934;-55
2023/06/27 09:19:32;;;;;;;6.78;4.55;;;25.60;64.20;;;;;;7676570;22;80795;-57
2023/06/27 09:22:33;;;;;;;8.98;5.18;;;25.60;64.20;;;;;;7639668;22;82296;-59
2023/06/27 09:25:33;;;;;;;8.45;4.40;;;25.60;64.30;;;;;;7648946;22;83103;-58
2023/06/27 09:28:34;;;;;;;8.85;4.85;;;25.70;64.10;;;;;;7679057;22;80693;-60
2023/06/27 09:31:35;;;;;;;26.38;5.75;;;25.70;64.00;;;;;;7680168;22;80196;-59
2023/06/27 09:34:36;;;;;;;9.23;4.93;;;25.70;64.20;;;;;;7674691;22;80546;-59
2023/06/27 09:37:36;;;;;;;11.23;4.85;;;25.70;63.90;;;;;;7667920;22;80992;-59
2023/06/27 09:40:37;;;;;;;13.10;4.88;;;25.70;64.00;;;;;;7673648;22;80897;-58
2023/06/27 09:43:37;;;;;;;14.02;4.80;;;25.70;63.70;;;;;;7680335;22;81111;-59
2023/06/27 09:46:38;;;;;;;11.65;4.43;;;25.70;63.80;;;;;;7680776;22;80995;-61
2023/06/27 09:49:38;;;;;;;8.50;4.30;;;25.70;63.70;;;;;;7679200;22;80826;-60
2023/06/27 09:52:39;;;;;;;11.85;4.80;;;25.60;63.60;;;;;;7684262;22;80467;-58
2023/06/27 09:55:39;;;;;;;10.15;4.05;;;25.70;63.70;;;;;;7683007;22;81554;-59
2023/06/27 09:58:41;;;;;;;10.57;4.68;;;25.70;63.50;;;;;;7681982;22;80703;-59
2023/06/27 10:01:41;;;;;;;9.60;4.80;;;25.70;63.30;;;;;;7679316;22;80207;-72
2023/06/27 10:04:41;;;;;;;7.65;4.63;;;25.60;63.30;;;;;;7678769;22;80191;-70
2023/06/27 10:07:43;;;;;;;8.65;4.60;;;25.60;63.10;;;;;;7679039;22;80871;-69
2023/06/27 10:10:43;;;;;;;17.23;4.82;;;25.60;62.70;;;;;;7679642;22;80300;-72
2023/06/27 10:13:44;;;;;;;9.85;4.38;;;25.60;62.60;;;;;;7653476;22;81700;-69
2023/06/27 10:16:44;;;;;;;9.77;5.05;;;25.60;62.10;;;;;;7681438;22;81015;-67
2023/06/27 10:19:45;;;;;;;10.68;4.90;;;25.50;61.60;;;;;;7678033;22;80039;-65
2023/06/27 10:22:45;;;;;;;11.05;4.82;;;25.50;61.50;;;;;;7677401;22;80920;-62
2023/06/27 10:25:46;;;;;;;10.00;5.40;;;25.50;61.40;;;;;;7679723;22;80429;-61
2023/06/27 10:28:46;;;;;;;8.07;5.15;;;25.50;61.30;;;;;;7675619;22;81282;-60
2023/06/27 10:31:49;;;;;;;8.48;5.38;;;25.40;61.10;;;;;;7680909;22;80334;-60
2023/06/27 10:34:50;;;;;;;9.40;4.75;;;25.40;61.00;;;;;;7678521;22;80440;-59
2023/06/27 10:37:50;;;;;;;24.98;5.75;;;25.30;61.10;;;;;;7679500;22;80349;-58
2023/06/27 10:40:51;;;;;;;8.77;5.10;;;25.20;60.40;;;;;;7653485;22;80149;-58
2023/06/27 10:43:52;;;;;;;10.02;4.75;;;25.20;59.70;;;;;;7679704;22;81274;-58
2023/06/27 10:46:52;;;;;;;9.85;4.80;;;25.20;59.20;;;;;;7680985;22;81420;-58
2023/06/27 10:49:53;;;;;;;12.38;5.40;;;25.20;58.70;;;;;;7678679;22;80846;-58
2023/06/27 10:52:53;;;;;;;12.57;4.90;;;25.30;58.00;;;;;;7678679;22;80311;-58
2023/06/27 10:55:57;;;;;;;8.20;4.13;;;25.30;57.60;;;;;;7679217;22;80439;-58
2023/06/27 10:58:58;;;;;;;13.55;4.38;;;25.30;57.80;;;;;;7680377;22;81318;-57
2023/06/27 11:01:58;;;;;;;7.35;4.15;;;25.20;58.20;;;;;;7680255;22;80311;-57
2023/06/27 11:04:59;;;;;;;109.80;59.95;;;25.10;58.70;;;;;;7678037;22;80618;-58
2023/06/27 11:07:59;;;;;;;34.80;17.05;;;25.20;58.80;;;;;;7675395;22;83034;-58
2023/06/27 11:11:00;;;;;;;31.40;15.68;;;25.20;58.30;;;;;;7676295;22;83833;-59
2023/06/27 11:14:00;;;;;;;18.25;8.73;;;25.20;58.00;;;;;;7675111;22;83551;-59
2023/06/27 11:17:01;;;;;;;19.17;8.05;;;25.20;56.60;;;;;;7680092;22;82814;-58
2023/06/27 11:20:01;;;;;;;17.75;6.43;;;25.20;56.50;;;;;;7680319;22;80809;-58
2023/06/27 11:23:03;;;;;;;14.23;5.60;;;25.20;56.30;;;;;;7677178;22;80676;-58
2023/06/27 11:26:03;;;;;;;18.17;5.65;;;25.30;56.60;;;;;;7660997;22;81416;-59
2023/06/27 11:29:04;;;;;;;12.52;5.07;;;25.30;57.20;;;;;;7677189;22;80980;-58
2023/06/27 11:32:04;;;;;;;7.90;4.47;;;25.40;57.40;;;;;;7676622;22;80355;-58
2023/06/27 11:35:05;;;;;;;9.60;3.88;;;25.40;57.10;;;;;;7676274;22;80819;-69
2023/06/27 11:38:05;;;;;;;8.75;3.75;;;25.30;56.50;;;;;;7677851;22;80346;-71
2023/06/27 11:41:06;;;;;;;5.85;3.10;;;25.40;56.20;;;;;;7677698;22;80427;-68
2023/06/27 11:44:09;;;;;;;10.35;4.15;;;25.40;56.00;;;;;;7676254;22;80980;-65
2023/06/27 11:47:09;;;;;;;8.45;3.15;;;25.40;55.50;;;;;;7677933;22;80257;-65
2023/06/27 11:50:10;;;;;;;8.20;3.30;;;25.40;55.60;;;;;;7677859;22;81908;-65
2023/06/27 11:53:12;;;;;;;4.95;3.15;;;25.40;55.20;;;;;;7672851;22;81182;-59
2023/06/27 11:56:12;;;;;;;5.75;3.08;;;25.50;55.00;;;;;;7652782;22;80867;-59
2023/06/27 11:59:13;;;;;;;5.05;3.00;;;25.50;54.90;;;;;;7666862;22;81103;-60
2023/06/27 12:02:14;;;;;;;6.57;3.28;;;25.50;54.80;;;;;;7666010;22;80755;-58
2023/06/27 12:05:15;;;;;;;6.15;3.35;;;25.50;55.10;;;;;;7656346;22;81229;-59
2023/06/27 12:08:16;;;;;;;6.80;3.40;;;25.50;55.00;;;;;;7673276;22;80385;-57
2023/06/27 12:11:16;;;;;;;7.57;3.45;;;25.50;55.10;;;;;;7674030;22;80675;-55
2023/06/27 12:14:17;;;;;;;6.13;3.70;;;25.50;55.30;;;;;;7674718;22;80919;-59
2023/06/27 12:17:17;;;;;;;5.90;3.22;;;25.50;55.40;;;;;;7675926;22;80682;-58
2023/06/27 12:20:18;;;;;;;9.70;3.42;;;25.50;55.70;;;;;;7671247;22;80590;-59
2023/06/27 12:23:19;;;;;;;6.00;3.33;;;25.60;55.70;;;;;;7672109;22;80568;-58
2023/06/27 12:26:19;;;;;;;7.65;3.42;;;25.60;55.60;;;;;;7671606;22;81818;-58
2023/06/27 12:29:20;;;;;;;6.30;3.35;;;25.60;55.60;;;;;;7673862;22;80621;-59
2023/06/27 12:32:20;;;;;;;10.48;3.33;;;25.70;55.30;;;;;;7673159;22;80654;-58
2023/06/27 12:35:21;;;;;;;5.80;3.03;;;25.70;54.80;;;;;;7674369;22;80107;-60
2023/06/27 12:38:21;;;;;;;6.07;3.30;;;25.60;54.40;;;;;;7673276;22;81400;-60
2023/06/27 12:41:22;;;;;;;9.70;3.10;;;25.60;54.00;;;;;;7673131;22;80143;-59
2023/06/27 12:44:23;;;;;;;10.02;3.35;;;25.70;54.10;;;;;;7675199;22;81478;-57
2023/06/27 12:47:23;;;;;;;7.65;3.22;;;25.70;53.90;;;;;;7675156;22;80824;-57
2023/06/27 12:50:24;;;;;;;5.25;3.00;;;25.70;53.50;;;;;;7671971;22;80729;-57
2023/06/27 12:53:24;;;;;;;3.90;2.83;;;25.60;53.50;;;;;;7676277;22;80118;-57
2023/06/27 12:56:25;;;;;;;7.13;2.45;;;25.60;51.70;;;;;;7203813;22;83020;-58
2023/06/27 12:59:26;;;;;;;5.95;2.58;;;25.60;50.60;;;;;;6891394;22;84109;-56
2023/06/27 13:02:27;;;;;;;8.93;2.30;;;25.60;50.10;;;;;;6887014;22;83248;-55
2023/06/27 13:05:28;;;;;;;4.55;2.10;;;25.50;48.80;;;;;;6863931;22;83566;-57
2023/06/27 13:08:31;;;;;;;10.32;2.38;;;25.50;48.70;;;;;;6837697;22;83517;-57
2023/06/27 13:11:32;;;;;;;11.57;2.40;;;25.70;49.30;;;;;;6819627;22;83121;-58
2023/06/27 13:14:32;;;;;;;7.35;2.22;;;25.70;47.20;;;;;;6801912;22;83238;-55
2023/06/27 13:17:33;;;;;;;7.50;2.25;;;25.70;46.90;;;;;;6838574;22;83826;-55
2023/06/27 13:20:34;;;;;;;3.83;2.20;;;25.80;46.40;;;;;;6837913;22;83529;-55
2023/06/27 13:23:36;;;;;;;6.00;2.55;;;25.80;46.70;;;;;;6828084;22;83201;-76
2023/06/27 13:26:42;;;;;;;3.60;2.28;;;25.80;46.60;;;;;;6838292;22;83166;-69
2023/06/27 13:29:44;;;;;;;5.13;2.40;;;25.70;46.30;;;;;;6817698;22;88177;-66
2023/06/27 13:32:47;;;;;;;6.32;2.47;;;25.50;46.70;;;;;;6829803;22;83872;-70
2023/06/27 13:35:48;;;;;;;6.65;2.30;;;25.70;47.50;;;;;;6838108;22;83688;-67
2023/06/27 13:38:49;;;;;;;7.72;2.40;;;25.70;48.10;;;;;;6839534;22;83944;-72
2023/06/27 13:41:50;;;;;;;7.25;2.90;;;25.70;47.50;;;;;;6845801;22;83085;-68
2023/06/27 13:44:54;;;;;;;7.00;2.08;;;25.70;46.70;;;;;;6853048;22;82921;-64
2023/06/27 13:47:55;;;;;;;7.53;2.35;;;25.70;46.40;;;;;;6854774;22;83258;-66
2023/06/27 13:50:56;;;;;;;3.92;2.38;;;25.70;46.40;;;;;;6850023;22;84190;-72
2023/06/27 13:53:58;;;;;;;4.68;2.47;;;25.70;46.90;;;;;;6849687;22;84703;-66
2023/06/27 13:56:59;;;;;;;4.47;2.22;;;25.70;46.90;;;;;;6843303;22;83257;-69
2023/06/27 14:00:00;;;;;;;8.43;2.30;;;25.80;47.20;;;;;;7180862;22;83538;-68
2023/06/27 14:03:00;;;;;;;6.65;2.42;;;25.90;47.60;;;;;;7644158;22;80384;-73
2023/06/27 14:06:07;;;;;;;6.25;2.45;;;25.90;47.70;;;;;;7639952;22;80576;-66
2023/06/27 14:09:10;;;;;;;4.78;2.10;;;25.90;48.10;;;;;;7643353;22;80280;-72
2023/06/27 14:12:11;;;;;;;15.43;2.40;;;26.00;48.30;;;;;;7644559;22;80465;-63
2023/06/27 14:15:11;;;;;;;7.97;2.13;;;26.00;48.30;;;;;;7645851;22;81120;-70
2023/06/27 14:18:12;;;;;;;8.85;2.30;;;26.00;48.70;;;;;;7640616;22;81090;-67
2023/06/27 14:21:13;;;;;;;7.90;2.50;;;26.00;48.80;;;;;;7634484;22;80513;-68
2023/06/27 14:24:13;;;;;;;7.15;2.05;;;26.00;49.20;;;;;;7638457;22;80668;-72
2023/06/27 14:27:14;;;;;;;8.20;2.50;;;26.00;49.20;;;;;;7642431;22;80497;-74
2023/06/27 14:30:15;;;;;;;8.95;2.13;;;26.00;49.10;;;;;;7640899;22;80284;-71
2023/06/27 14:33:20;;;;;;;3.95;1.75;;;26.00;49.20;;;;;;7640834;22;80231;-72
2023/06/27 14:39:28;;;;;;;7.63;2.47;;;25.70;48.20;;;;;;7648499;22;79823;-57
2023/06/27 14:42:29;;;;;;;2.72;1.95;;;25.70;48.10;;;;;;7640755;22;80503;-57
2023/06/27 14:45:29;;;;;;;5.43;2.15;;;25.70;47.40;;;;;;7641879;22;80348;-58
2023/06/27 14:48:30;;;;;;;8.90;2.45;;;25.50;47.80;;;;;;7643184;22;80737;-58
2023/06/27 14:51:30;;;;;;;7.93;2.42;;;25.70;47.70;;;;;;7642847;22;80318;-55
2023/06/27 14:54:31;;;;;;;5.25;2.10;;;25.60;47.60;;;;;;7641430;22;80412;-57
2023/06/27 14:57:31;;;;;;;11.02;2.40;;;25.70;47.80;;;;;;7639068;22;80921;-57
2023/06/27 15:00:32;;;;;;;3.22;2.35;;;25.60;48.30;;;;;;7641293;22;80316;-57
2023/06/27 15:03:32;;;;;;;8.43;1.95;;;25.50;48.30;;;;;;7614000;22;83650;-56
2023/06/27 15:06:33;;;;;;;5.68;2.50;;;25.50;48.70;;;;;;7642007;22;80454;-59
2023/06/27 15:09:34;;;;;;;6.80;2.20;;;25.50;49.80;;;;;;7642687;22;80350;-58
2023/06/27 15:12:34;;;;;;;8.93;2.95;;;25.40;50.60;;;;;;7643322;22;80380;-59
2023/06/27 15:15:35;;;;;;;7.40;2.53;;;25.40;51.10;;;;;;7642980;22;80564;-58
2023/06/27 15:18:35;;;;;;;7.00;2.50;;;25.20;51.90;;;;;;7642987;22;80538;-56
2023/06/27 15:21:38;;;;;;;7.63;2.45;;;25.30;52.50;;;;;;7640150;22;81221;-57
2023/06/27 15:24:38;;;;;;;8.50;2.67;;;25.40;53.50;;;;;;7637533;22;81642;-57
2023/06/27 15:27:39;;;;;;;10.20;2.75;;;25.40;53.90;;;;;;7637869;22;80578;-57
2023/06/27 15:30:40;;;;;;;8.18;2.47;;;25.50;54.50;;;;;;7639345;22;80035;-60
2023/06/27 15:33:40;;;;;;;7.72;2.50;;;25.50;55.60;;;;;;7638572;22;80890;-58
2023/06/27 15:36:41;;;;;;;8.43;2.75;;;25.50;55.80;;;;;;7638322;22;81833;-58
2023/06/27 15:39:42;;;;;;;4.68;2.20;;;25.50;56.20;;;;;;7638574;22;80220;-57
2023/06/27 15:42:42;;;;;;;7.40;2.50;;;25.60;55.30;;;;;;7642132;22;80738;-58
2023/06/27 15:45:43;;;;;;;4.10;1.98;;;25.70;55.20;;;;;;7642866;22;80298;-60
2023/06/27 15:48:43;;;;;;;7.43;1.95;;;25.60;53.60;;;;;;7616899;22;81843;-59
2023/06/27 15:51:44;;;;;;;4.13;2.63;;;25.50;52.60;;;;;;7644521;22;80480;-59
2023/06/27 15:54:44;;;;;;;9.00;3.55;;;25.40;50.80;;;;;;7642144;22;81257;-59